createdAt,value
2023-01-05T00:01:12.887Z,73.97
2023-01-05T00:03:50.495Z,74.07
2023-01-05T00:06:20.721Z,74.07
2023-01-05T00:08:53.746Z,74.08
2023-01-05T00:11:54.114Z,74.10
2023-01-05T00:14:52.892Z,74.36
2023-01-05T00:17:43.468Z,74.42
2023-01-05T00:20:43.823Z,74.16
2023-01-05T00:23:16.460Z,74.37
2023-01-05T00:25:47.134Z,74.07
2023-01-05T00:28:18.969Z,73.88
2023-01-05T00:30:49.988Z,73.80
2023-01-05T00:33:25.257Z,73.64
2023-01-05T00:36:00.543Z,73.57
2023-01-05T00:38:30.580Z,73.39
2023-01-05T00:41:00.483Z,73.26
2023-01-05T00:43:32.847Z,73.08
2023-01-05T00:46:03.089Z,73.04
2023-01-05T00:48:38.535Z,73.00
2023-01-05T00:51:13.117Z,72.88
2023-01-05T00:53:48.232Z,72.78
2023-01-05T00:56:25.419Z,72.69
2023-01-05T00:58:57.980Z,72.83
2023-01-05T01:01:28.489Z,72.73
2023-01-05T01:04:01.249Z,72.86
2023-01-05T01:06:31.950Z,72.85
2023-01-05T01:09:05.478Z,72.99
2023-01-05T01:11:37.844Z,72.99
2023-01-05T01:14:11.106Z,73.12
2023-01-05T01:16:43.700Z,73.27
2023-01-05T01:19:24.495Z,73.35
2023-01-05T01:21:55.200Z,73.44
2023-01-05T01:24:30.083Z,73.66
2023-01-05T01:27:00.378Z,73.86
2023-01-05T01:29:33.530Z,73.93
2023-01-05T01:32:11.169Z,74.08
2023-01-05T01:34:55.455Z,74.35
2023-01-05T01:37:26.159Z,74.54
2023-01-05T01:40:02.818Z,74.64
2023-01-05T01:42:35.997Z,74.74
2023-01-05T01:45:24.444Z,74.75
2023-01-05T01:48:02.722Z,74.96
2023-01-05T01:51:08.057Z,75.20
2023-01-05T01:53:56.432Z,75.26
2023-01-05T01:56:41.447Z,75.23
2023-01-05T01:59:17.828Z,75.21
2023-01-05T02:01:58.599Z,75.22
2023-01-05T02:04:38.143Z,75.26
2023-01-05T02:07:15.992Z,75.42
2023-01-05T02:09:49.935Z,75.44
2023-01-05T02:12:54.101Z,75.53
2023-01-05T02:16:22.176Z,75.70
2023-01-05T02:19:08.901Z,75.89
2023-01-05T02:21:51.822Z,75.88
2023-01-05T02:25:03.737Z,75.91
2023-01-05T02:28:18.128Z,75.88
2023-01-05T02:31:23.281Z,76.01
2023-01-05T02:34:19.658Z,76.18
2023-01-05T02:37:04.051Z,76.25
2023-01-05T02:40:21.860Z,76.23
2023-01-05T02:42:55.974Z,76.21
2023-01-05T02:45:28.092Z,76.11
2023-01-05T02:48:05.770Z,75.88
2023-01-05T02:50:54.078Z,75.77
2023-01-05T02:53:43.062Z,75.51
2023-01-05T02:56:37.152Z,75.34
2023-01-05T02:59:33.030Z,75.23
2023-01-05T03:02:22.816Z,75.15
2023-01-05T03:05:13.709Z,75.16
2023-01-05T03:07:44.235Z,75.23
2023-01-05T03:10:34.210Z,75.25
2023-01-05T03:13:31.183Z,75.21
2023-01-05T03:16:09.195Z,75.34
2023-01-05T03:19:03.030Z,75.36
2023-01-05T03:21:52.710Z,75.41
2023-01-05T03:24:41.805Z,75.48
2023-01-05T03:27:35.596Z,75.56
2023-01-05T03:30:27.004Z,75.61
2023-01-05T03:33:28.898Z,75.58
2023-01-05T03:36:02.032Z,75.60
2023-01-05T03:38:46.545Z,75.57
2023-01-05T03:41:31.001Z,75.38
2023-01-05T03:44:13.227Z,75.40
2023-01-05T03:46:45.924Z,75.33
2023-01-05T03:49:20.784Z,75.32
2023-01-05T03:51:57.118Z,75.25
2023-01-05T03:54:36.127Z,75.26
2023-01-05T03:57:49.797Z,75.12
2023-01-05T04:00:31.908Z,75.00
2023-01-05T04:03:15.081Z,74.84
2023-01-05T04:05:50.876Z,74.85
2023-01-05T04:08:21.712Z,74.84
2023-01-05T04:11:21.558Z,74.82
2023-01-05T04:14:04.416Z,74.77
2023-01-05T04:16:57.900Z,74.74
2023-01-05T04:19:39.319Z,74.96
2023-01-05T04:22:27.601Z,74.81
2023-01-05T04:25:12.072Z,74.74
2023-01-05T04:28:01.548Z,74.76
2023-01-05T04:30:51.083Z,74.69
2023-01-05T04:34:01.331Z,74.60
2023-01-05T04:37:25.354Z,74.58
2023-01-05T04:40:06.388Z,74.61
2023-01-05T04:42:50.026Z,74.57
2023-01-05T04:45:28.128Z,74.46
2023-01-05T04:48:12.500Z,74.44
2023-01-05T04:50:56.988Z,74.26
2023-01-05T04:53:36.353Z,74.25
2023-01-05T04:56:17.608Z,74.13
2023-01-05T04:58:50.692Z,74.09
2023-01-05T05:01:34.670Z,74.02
2023-01-05T05:04:14.986Z,74.05
2023-01-05T05:07:13.316Z,73.92
2023-01-05T05:09:56.102Z,73.99
2023-01-05T05:12:31.343Z,74.00
2023-01-05T05:15:07.614Z,73.94
2023-01-05T05:17:43.664Z,73.90
2023-01-05T05:20:16.443Z,73.72
2023-01-05T05:23:00.528Z,73.57
2023-01-05T05:25:36.788Z,73.46
2023-01-05T05:28:09.256Z,73.51
2023-01-05T05:30:43.268Z,73.49
2023-01-05T05:33:23.033Z,73.42
2023-01-05T05:36:18.659Z,73.38
2023-01-05T05:39:02.730Z,73.45
2023-01-05T05:41:43.341Z,73.48
2023-01-05T05:44:42.337Z,73.46
2023-01-05T05:47:35.877Z,73.40
2023-01-05T05:50:14.761Z,73.28
2023-01-05T05:52:48.797Z,73.22
2023-01-05T05:55:27.459Z,73.14
2023-01-05T05:58:04.192Z,73.13
2023-01-05T06:00:53.508Z,73.10
2023-01-05T06:03:52.785Z,73.04
2023-01-05T06:06:23.089Z,73.03
2023-01-05T06:08:54.586Z,72.89
2023-01-05T06:11:36.225Z,72.87
2023-01-05T06:14:10.968Z,72.81
2023-01-05T06:16:42.705Z,72.87
2023-01-05T06:19:19.686Z,72.73
2023-01-05T06:21:50.961Z,72.73
2023-01-05T06:24:22.276Z,72.64
2023-01-05T06:27:10.653Z,72.55
2023-01-05T06:29:46.819Z,72.52
2023-01-05T06:32:17.205Z,72.54
2023-01-05T06:34:51.361Z,72.46
2023-01-05T06:37:24.456Z,72.33
2023-01-05T06:40:02.890Z,72.26
2023-01-05T06:42:33.524Z,72.24
2023-01-05T06:45:08.851Z,72.20
2023-01-05T06:47:54.748Z,72.21
2023-01-05T06:50:27.583Z,72.37
2023-01-05T06:52:59.908Z,72.27
2023-01-05T06:55:29.991Z,72.32
2023-01-05T06:58:06.241Z,72.40
2023-01-05T07:00:51.364Z,72.41
2023-01-05T07:03:24.004Z,72.45
2023-01-05T07:05:56.314Z,72.63
2023-01-05T07:08:36.852Z,72.63
2023-01-05T07:11:07.046Z,72.92
2023-01-05T07:13:43.742Z,72.95
2023-01-05T07:16:17.237Z,72.64
2023-01-05T07:18:47.469Z,72.42
2023-01-05T07:21:20.384Z,72.20
2023-01-05T07:23:50.567Z,72.02
2023-01-05T07:26:20.206Z,71.87
2023-01-05T07:28:52.134Z,71.71
2023-01-05T07:31:24.206Z,71.80
2023-01-05T07:33:57.576Z,71.62
2023-01-05T07:36:27.924Z,71.43
2023-01-05T07:39:00.283Z,71.08
2023-01-05T07:41:30.431Z,70.90
2023-01-05T07:44:03.791Z,70.86
2023-01-05T07:46:37.157Z,70.70
2023-01-05T07:49:16.277Z,70.49
2023-01-05T07:51:46.316Z,70.52
2023-01-05T07:54:23.270Z,70.46
2023-01-05T07:56:56.029Z,70.43
2023-01-05T07:59:30.611Z,70.14
2023-01-05T08:02:01.595Z,69.97
2023-01-05T08:04:31.693Z,69.83
2023-01-05T08:07:02.494Z,69.68
2023-01-05T08:10:23.479Z,69.38
2023-01-05T08:13:11.600Z,69.33
2023-01-05T08:15:50.769Z,69.29
2023-01-05T08:18:22.181Z,69.13
2023-01-05T08:21:04.505Z,69.02
2023-01-05T08:23:33.772Z,68.95
2023-01-05T08:26:10.788Z,68.87
2023-01-05T08:28:45.389Z,68.78
2023-01-05T08:31:30.062Z,68.72
2023-01-05T08:34:05.437Z,68.63
2023-01-05T08:36:48.533Z,68.48
2023-01-05T08:39:23.068Z,68.60
2023-01-05T08:42:02.798Z,68.60
2023-01-05T08:44:39.550Z,68.70
2023-01-05T08:47:18.182Z,68.69
2023-01-05T08:49:52.989Z,68.63
2023-01-05T08:52:23.509Z,68.46
2023-01-05T08:54:52.943Z,68.38
2023-01-05T08:57:24.324Z,68.27
2023-01-05T08:59:58.516Z,68.25
2023-01-05T09:02:28.134Z,68.32
2023-01-05T09:04:57.583Z,68.20
2023-01-05T09:07:30.281Z,68.24
2023-01-05T09:10:23.963Z,68.30
2023-01-05T09:12:59.361Z,68.35
2023-01-05T09:15:32.284Z,68.28
2023-01-05T09:18:01.701Z,68.17
2023-01-05T09:20:36.105Z,68.11
2023-01-05T09:23:08.582Z,68.20
2023-01-05T09:25:39.677Z,68.13
2023-01-05T09:28:10.028Z,68.00
2023-01-05T09:30:47.013Z,67.83
2023-01-05T09:33:19.474Z,67.60
2023-01-05T09:35:57.968Z,67.50
2023-01-05T09:38:27.466Z,67.46
2023-01-05T09:41:07.946Z,67.53
2023-01-05T09:43:44.505Z,67.29
2023-01-05T09:46:22.584Z,67.37
2023-01-05T09:49:01.369Z,67.47
2023-01-05T09:51:37.164Z,67.46
2023-01-05T09:54:10.416Z,67.33
2023-01-05T09:59:48.498Z,67.01
2023-01-05T10:02:40.687Z,66.83
2023-01-05T10:05:14.415Z,66.69
2023-01-05T10:08:11.457Z,66.79
2023-01-05T10:11:20.368Z,67.15
2023-01-05T10:14:14.961Z,67.27
2023-01-05T10:16:53.743Z,67.25
2023-01-05T10:19:36.978Z,67.12
2023-01-05T10:22:57.910Z,66.44
2023-01-05T10:25:48.997Z,65.43
2023-01-05T10:28:30.352Z,64.65
2023-01-05T10:31:03.039Z,64.31
2023-01-05T10:33:58.989Z,63.98
2023-01-05T10:37:10.547Z,63.86
2023-01-05T10:39:58.036Z,63.77
2023-01-05T10:43:01.040Z,63.17
2023-01-05T10:45:32.527Z,62.36
2023-01-05T10:48:02.359Z,61.84
2023-01-05T10:50:41.208Z,61.73
2023-01-05T10:53:15.585Z,61.85
2023-01-05T10:56:19.717Z,61.81
2023-01-05T10:59:19.300Z,60.76
2023-01-05T11:02:20.226Z,60.20
2023-01-05T11:05:03.017Z,59.32
2023-01-05T11:08:00.702Z,58.43
2023-01-05T11:11:01.960Z,58.02
2023-01-05T11:13:40.979Z,56.59
2023-01-05T11:16:33.651Z,55.56
2023-01-05T11:19:21.679Z,54.39
2023-01-05T11:21:59.800Z,54.45
2023-01-05T11:24:37.631Z,54.54
2023-01-05T11:27:24.093Z,54.13
2023-01-05T11:30:28.797Z,54.00
2023-01-05T11:33:01.946Z,54.41
2023-01-05T11:35:40.929Z,54.81
2023-01-05T11:38:29.511Z,55.66
2023-01-05T11:41:01.641Z,56.16
2023-01-05T11:43:34.183Z,56.80
2023-01-05T11:46:05.731Z,57.19
2023-01-05T11:48:40.484Z,57.32
2023-01-05T11:51:10.502Z,57.73
2023-01-05T11:53:41.212Z,57.91
2023-01-05T11:56:25.096Z,58.30
2023-01-05T11:58:58.819Z,58.27
2023-01-05T12:02:00.163Z,58.35
2023-01-05T12:04:38.161Z,58.10
2023-01-05T12:07:27.672Z,58.24
2023-01-05T12:10:39.505Z,58.64
2023-01-05T12:13:53.593Z,58.58
2023-01-05T12:16:54.818Z,58.47
2023-01-05T12:19:56.945Z,58.41
2023-01-05T12:23:02.835Z,58.55
2023-01-05T12:25:57.440Z,58.78
2023-01-05T12:30:40.292Z,58.86
2023-01-05T12:36:04.151Z,58.68
2023-01-05T12:38:46.579Z,58.36
2023-01-05T12:42:17.742Z,57.89
2023-01-05T12:45:28.068Z,57.54
2023-01-05T12:48:19.107Z,57.33
2023-01-05T12:51:27.947Z,57.34
2023-01-05T12:54:00.505Z,57.39
2023-01-05T12:56:48.298Z,57.23
2023-01-05T12:59:53.008Z,57.46
2023-01-05T13:02:54.159Z,57.50
2023-01-05T13:05:50.583Z,57.64
2023-01-05T13:08:37.840Z,57.62
2023-01-05T13:11:36.531Z,57.75
2023-01-05T13:14:17.998Z,57.68
2023-01-05T13:17:24.687Z,57.75
2023-01-05T13:20:30.456Z,57.92
2023-01-05T13:23:17.760Z,58.02
2023-01-05T13:26:04.861Z,58.25
2023-01-05T13:28:35.200Z,58.40
2023-01-05T13:32:05.232Z,58.35
2023-01-05T13:35:06.271Z,58.55
2023-01-05T13:37:53.616Z,58.71
2023-01-05T13:41:08.684Z,58.83
2023-01-05T13:43:43.996Z,58.96
2023-01-05T13:46:37.288Z,59.11
2023-01-05T13:49:37.461Z,59.14
2023-01-05T13:53:05.217Z,59.29
2023-01-05T13:55:44.313Z,59.39
2023-01-05T13:59:04.527Z,59.38
2023-01-05T14:01:43.393Z,59.34
2023-01-05T14:04:32.753Z,59.35
2023-01-05T14:07:17.241Z,59.41
2023-01-05T14:09:56.720Z,59.40
2023-01-05T14:12:43.730Z,59.35
2023-01-05T14:15:31.823Z,59.30
2023-01-05T14:18:10.886Z,59.24
2023-01-05T14:20:54.437Z,59.14
2023-01-05T14:23:25.947Z,59.13
2023-01-05T14:26:01.225Z,59.11
2023-01-05T14:28:33.345Z,59.12
2023-01-05T14:31:18.335Z,59.18
2023-01-05T14:33:56.460Z,59.32
2023-01-05T14:36:35.160Z,59.43
2023-01-05T14:39:26.167Z,59.71
2023-01-05T14:42:13.626Z,59.71
2023-01-05T14:45:09.722Z,60.01
2023-01-05T14:47:49.920Z,60.30
2023-01-05T14:50:47.309Z,60.54
2023-01-05T14:53:43.549Z,61.02
2023-01-05T14:56:26.598Z,61.49
2023-01-05T14:58:57.014Z,61.93
2023-01-05T15:01:58.282Z,62.15
2023-01-05T15:04:39.376Z,62.38
2023-01-05T15:07:46.221Z,62.55
2023-01-05T15:10:57.400Z,62.64
2023-01-05T15:14:25.363Z,62.76
2023-01-05T15:17:37.361Z,62.91
2023-01-05T15:20:25.060Z,62.99
2023-01-05T15:23:40.040Z,63.09
2023-01-05T15:26:30.354Z,63.12
2023-01-05T15:29:36.693Z,63.23
2023-01-05T15:32:32.830Z,63.24
2023-01-05T15:35:26.725Z,63.13
2023-01-05T15:37:56.166Z,62.87
2023-01-05T15:40:25.576Z,62.65
2023-01-05T15:43:03.183Z,62.37
2023-01-05T15:45:39.752Z,62.08
2023-01-05T15:48:17.202Z,61.80
2023-01-05T15:50:51.653Z,61.39
2023-01-05T15:53:33.202Z,61.33
2023-01-05T15:56:04.956Z,61.09
2023-01-05T15:58:46.326Z,60.96
2023-01-05T16:01:16.906Z,60.99
2023-01-05T16:03:49.011Z,61.10
2023-01-05T16:06:26.692Z,60.90
2023-01-05T16:09:07.875Z,60.98
2023-01-05T16:11:48.801Z,60.97
2023-01-05T16:14:32.898Z,61.03
2023-01-05T16:17:20.372Z,61.26
2023-01-05T16:20:12.471Z,61.54
2023-01-05T16:23:08.220Z,61.97
2023-01-05T16:25:52.561Z,62.46
2023-01-05T16:28:24.601Z,62.88
2023-01-05T16:30:54.989Z,63.47
2023-01-05T16:33:38.979Z,63.90
2023-01-05T16:36:23.724Z,64.38
2023-01-05T16:38:53.039Z,64.82
2023-01-05T16:41:30.863Z,65.05
2023-01-05T16:44:04.046Z,65.37
2023-01-05T16:46:39.245Z,65.48
2023-01-05T16:49:43.503Z,65.61
2023-01-05T16:52:24.959Z,65.79
2023-01-05T16:55:36.987Z,66.00
2023-01-05T16:58:32.093Z,66.24
2023-01-05T17:01:23.686Z,66.24
2023-01-05T17:03:54.494Z,66.20
2023-01-05T17:06:31.344Z,66.20
2023-01-05T17:09:18.091Z,66.26
2023-01-05T17:11:54.218Z,66.41
2023-01-05T17:14:29.675Z,66.44
2023-01-05T17:17:02.289Z,66.57
2023-01-05T17:19:49.840Z,66.41
2023-01-05T17:22:23.004Z,66.52
2023-01-05T17:24:54.848Z,66.58
2023-01-05T17:27:27.611Z,66.68
2023-01-05T17:29:57.383Z,67.13
2023-01-05T17:32:29.433Z,67.21
2023-01-05T17:34:59.208Z,66.67
2023-01-05T17:37:28.836Z,66.22
2023-01-05T17:39:59.783Z,66.18
2023-01-05T17:42:44.840Z,66.18
2023-01-05T17:45:20.989Z,66.23
2023-01-05T17:47:55.277Z,66.14
2023-01-05T17:53:07.417Z,66.01
2023-01-05T17:55:37.486Z,65.99
2023-01-05T17:58:07.495Z,65.95
2023-01-05T18:03:27.090Z,65.79
2023-01-05T18:06:01.161Z,65.79
2023-01-05T18:08:34.138Z,65.98
2023-01-05T18:11:08.103Z,65.85
2023-01-05T18:13:40.901Z,65.50
2023-01-05T18:16:15.596Z,65.32
2023-01-05T18:18:47.723Z,64.95
2023-01-05T18:21:18.009Z,64.86
2023-01-05T18:23:49.831Z,65.02
2023-01-05T18:26:21.551Z,64.97
2023-01-05T18:28:53.305Z,64.79
2023-01-05T18:31:27.237Z,64.79
2023-01-05T18:34:00.696Z,64.80
2023-01-05T18:36:31.142Z,64.95
2023-01-05T18:39:30.962Z,65.30
2023-01-05T18:42:07.877Z,64.90
2023-01-05T18:44:40.301Z,64.67
2023-01-05T18:47:19.318Z,64.73
2023-01-05T18:50:22.777Z,64.98
2023-01-05T18:53:12.168Z,64.70
2023-01-05T18:55:55.750Z,64.59
2023-01-05T18:58:30.221Z,64.80
2023-01-05T19:01:02.232Z,64.86
2023-01-05T19:03:38.131Z,64.79
2023-01-05T19:06:47.915Z,64.91
2023-01-05T19:13:42.954Z,65.02
2023-01-05T19:17:12.995Z,65.11
2023-01-05T19:20:06.481Z,64.95
2023-01-05T19:22:48.118Z,64.90
2023-01-05T19:25:31.876Z,64.73
2023-01-05T19:29:23.313Z,64.83
2023-01-05T19:31:43.980Z,64.84
2023-01-05T19:34:54.252Z,64.71
2023-01-05T19:37:46.561Z,64.59
2023-01-05T19:40:47.472Z,64.49
2023-01-05T19:43:41.047Z,64.45
2023-01-05T19:53:06.976Z,64.52
2023-01-05T19:56:02.847Z,64.39
2023-01-05T19:58:38.221Z,64.37
2023-01-05T20:01:21.348Z,64.27
2023-01-05T20:04:04.345Z,64.31
2023-01-05T20:06:42.805Z,64.29
2023-01-05T20:12:15.857Z,64.31
2023-01-05T20:15:07.642Z,64.39
2023-01-05T20:18:22.345Z,64.52
2023-01-05T20:20:56.224Z,64.50
2023-01-05T20:23:53.287Z,64.47
2023-01-05T20:26:46.735Z,64.42
2023-01-05T20:29:41.196Z,64.51
2023-01-05T20:32:31.610Z,64.64
2023-01-05T20:35:07.298Z,64.54
2023-01-05T20:38:05.691Z,64.66
2023-01-05T20:40:41.071Z,64.73
2023-01-05T20:43:17.239Z,64.88
2023-01-05T20:45:56.615Z,64.81
2023-01-05T20:48:35.600Z,64.94
2023-01-05T20:51:11.813Z,64.96
2023-01-05T20:53:48.967Z,64.96
2023-01-05T20:56:45.580Z,64.92
2023-01-05T21:00:04.489Z,64.89
2023-01-05T21:02:43.016Z,64.91
2023-01-05T21:05:19.130Z,64.89
2023-01-05T21:07:58.394Z,64.89
2023-01-05T21:10:38.950Z,64.85
2023-01-05T21:13:30.762Z,64.85
2023-01-05T21:16:07.679Z,64.82
2023-01-05T21:18:40.028Z,64.71
2023-01-05T21:21:19.048Z,64.81
2023-01-05T21:23:53.767Z,64.80
2023-01-05T21:26:28.362Z,64.68
2023-01-05T21:29:00.501Z,64.73
2023-01-05T21:31:38.138Z,64.76
2023-01-05T21:34:15.334Z,64.78
2023-01-05T21:36:53.615Z,64.78
2023-01-05T21:39:42.131Z,64.85
2023-01-05T21:42:37.248Z,64.86
2023-01-05T21:45:51.505Z,64.83
2023-01-05T21:49:01.294Z,65.05
2023-01-05T21:51:53.114Z,64.97
2023-01-05T21:54:47.397Z,64.98
2023-01-05T21:57:37.182Z,64.93
2023-01-05T22:00:23.399Z,65.21
2023-01-05T22:02:56.458Z,65.24
2023-01-05T22:05:29.343Z,65.74
2023-01-05T22:07:58.949Z,66.19
2023-01-05T22:10:31.299Z,65.82
2023-01-05T22:13:00.704Z,65.39
2023-01-05T22:16:01.257Z,64.78
2023-01-05T22:18:36.113Z,64.57
2023-01-05T22:21:18.537Z,64.57
2023-01-05T22:24:21.251Z,64.60
2023-01-05T22:28:02.840Z,64.66
2023-01-05T22:31:06.264Z,64.77
2023-01-05T22:33:45.568Z,64.91
2023-01-05T22:36:20.623Z,65.06
2023-01-05T22:38:58.081Z,65.11
2023-01-05T22:41:33.912Z,65.08
2023-01-05T22:44:06.688Z,65.07
2023-01-05T22:46:36.806Z,65.21
2023-01-05T22:49:18.537Z,65.33
2023-01-05T22:51:52.274Z,65.61
2023-01-05T22:54:30.616Z,65.45
2023-01-05T22:57:00.916Z,65.36
2023-01-05T22:59:30.485Z,65.40
2023-01-05T23:02:03.055Z,65.48
2023-01-05T23:04:36.027Z,65.50
2023-01-05T23:07:05.472Z,65.62
2023-01-05T23:09:38.354Z,65.77
2023-01-05T23:12:12.045Z,65.73
2023-01-05T23:14:46.892Z,65.71
2023-01-05T23:17:17.820Z,65.78
2023-01-05T23:19:49.835Z,65.77
2023-01-05T23:22:21.810Z,65.93
2023-01-05T23:24:54.480Z,65.94
2023-01-05T23:27:25.783Z,65.96
2023-01-05T23:30:02.288Z,66.07
2023-01-05T23:32:34.008Z,66.23
2023-01-05T23:35:08.168Z,66.24
2023-01-05T23:37:43.187Z,66.47
2023-01-05T23:40:16.217Z,66.43
2023-01-05T23:42:49.384Z,66.65
2023-01-05T23:45:19.817Z,66.64
2023-01-05T23:47:51.249Z,66.54
2023-01-05T23:50:22.854Z,66.77
2023-01-05T23:52:53.078Z,66.80
2023-01-05T23:55:25.719Z,66.93
2023-01-05T23:57:58.387Z,67.04
